NZAA/AKL METAR and TAF weather

Enter ICAO airport designator
Station Type Date Time Source
NZAA METAR 2022/12/10 01:30 UTC NOAA

NZAA 100130Z AUTO 03009KT 360V070 9999 BKN014/// BKN027/// OVC050/// 21/19 Q1013


Station Type Date Time Source
NZAA Decoded METAR 2022/12/10 01:30 UTC NOAA

Auckland Airport, New Zealand (NZAA) 37-01S 174-48E 6M
Dec 09, 2022 - 08:30 PM EST / 2022.12.10 0130 UTC
Wind: from the NNE (030 degrees) at 10 MPH (9 KT) (direction variable):0
Visibility: greater than 7 mile(s):0
Sky conditions: overcast
Temperature: 69 F (21 C)
Dew Point: 66 F (19 C)
Relative Humidity: 88%
Pressure (altimeter): 29.91 in. Hg (1013 hPa)
ob: NZAA 100130Z AUTO 03009KT 360V070 9999 BKN014/// BKN027/// OVC050/// 21/19 Q1013
cycle: 1

Station Type Date Time Source
NZAA TAF 2022/12/09 21:36 UTC NOAA

TAF NZAA 092026Z 0921/1100 30005KT 9999 FEW015 SCT040
TEMPO 0921/1000 BKN008
BECMG 1001/1003 02012KT
TEMPO 1002/1009 4000 +SHRA FEW020TCU PROB30
TEMPO 1002/1009 2500 +TSRAGS BKN012 FEW020CB
BECMG 1007/1009 32005KT
TEMPO 1009/1012 6000 SHRA BKN012
TEMPO 1012/1019 BKN012
TEMPO 1021/1100 6000 SHRA

Example: see airport list